createdAt,value
2019-01-25T00:03:38.701Z,7.87
2019-01-25T00:07:46.695Z,6.93
2019-01-25T00:11:54.756Z,7.67
2019-01-25T00:16:03.015Z,8.03
2019-01-25T00:20:10.971Z,8.50
2019-01-25T00:24:18.673Z,9.23
2019-01-25T00:28:26.679Z,9.77
2019-01-25T00:32:34.316Z,13.47
2019-01-25T00:36:42.330Z,11.63
2019-01-25T00:40:50.035Z,10.90
2019-01-25T00:44:57.643Z,9.13
2019-01-25T00:49:05.987Z,8.07
2019-01-25T00:53:13.692Z,9.43
2019-01-25T00:57:21.408Z,9.97
2019-01-25T01:01:29.512Z,8.80
2019-01-25T01:05:37.019Z,8.77
2019-01-25T01:09:44.909Z,8.97
2019-01-25T01:13:52.896Z,9.23
2019-01-25T01:18:02.336Z,8.97
2019-01-25T01:22:10.352Z,9.20
2019-01-25T01:26:18.348Z,10.70
2019-01-25T01:30:26.220Z,10.53
2019-01-25T01:34:34.218Z,9.20
2019-01-25T01:38:42.210Z,9.70
2019-01-25T01:42:50.525Z,10.53
2019-01-25T01:46:59.547Z,10.13
2019-01-25T01:51:07.655Z,10.57
2019-01-25T01:55:15.492Z,12.40
2019-01-25T01:59:23.511Z,11.53
2019-01-25T02:03:31.213Z,9.60
2019-01-25T02:07:39.212Z,10.10
2019-01-25T02:11:47.316Z,9.77
2019-01-25T02:15:55.336Z,9.47
2019-01-25T02:20:03.442Z,8.17
2019-01-25T02:24:11.345Z,9.43
2019-01-25T02:28:19.258Z,9.30
2019-01-25T02:32:27.259Z,10.30
2019-01-25T02:36:35.047Z,10.07
2019-01-25T02:40:42.931Z,8.90
2019-01-25T02:44:50.638Z,9.80
2019-01-25T02:48:58.651Z,9.33
2019-01-25T02:53:06.451Z,11.67
2019-01-25T02:57:14.093Z,10.97
2019-01-25T03:01:21.869Z,10.80
2019-01-25T03:05:30.253Z,10.40
2019-01-25T03:09:38.722Z,8.97
2019-01-25T03:13:46.217Z,10.30
2019-01-25T03:17:54.529Z,9.67
2019-01-25T03:22:03.013Z,8.23
2019-01-25T03:26:11.011Z,10.90
2019-01-25T03:30:20.740Z,9.50
2019-01-25T03:34:29.283Z,9.53
2019-01-25T03:38:37.288Z,8.97
2019-01-25T03:42:45.425Z,8.30
2019-01-25T03:46:53.144Z,9.07
2019-01-25T03:51:00.929Z,8.50
2019-01-25T03:55:10.525Z,7.50
2019-01-25T03:59:18.435Z,8.90
2019-01-25T04:03:26.541Z,9.33
2019-01-25T04:07:34.542Z,7.57
2019-01-25T04:11:42.535Z,7.53
2019-01-25T04:15:50.034Z,8.73
2019-01-25T04:19:58.039Z,8.57
2019-01-25T04:24:07.238Z,8.73
2019-01-25T04:28:14.832Z,9.27
2019-01-25T04:32:22.821Z,9.63
2019-01-25T04:36:30.924Z,10.47
2019-01-25T04:40:38.833Z,11.97
2019-01-25T04:44:47.214Z,12.17
2019-01-25T04:48:55.039Z,24.53
2019-01-25T04:53:03.056Z,12.60
2019-01-25T04:57:11.073Z,13.63
2019-01-25T05:01:19.021Z,13.00
2019-01-25T05:05:27.453Z,12.53
2019-01-25T05:09:40.136Z,13.30
2019-01-25T05:13:48.121Z,9.77
2019-01-25T05:17:56.508Z,12.40
2019-01-25T05:22:04.618Z,12.00
2019-01-25T05:26:12.674Z,12.40
2019-01-25T05:30:20.302Z,10.70
2019-01-25T05:34:28.229Z,15.23
2019-01-25T05:38:36.702Z,17.63
2019-01-25T05:42:44.331Z,17.57
2019-01-25T05:46:52.310Z,16.33
2019-01-25T05:51:05.780Z,17.43
2019-01-25T05:55:17.811Z,17.23
2019-01-25T05:59:25.733Z,16.27
2019-01-25T06:03:33.663Z,18.97
2019-01-25T06:07:44.110Z,23.57
2019-01-25T06:11:52.369Z,17.07
2019-01-25T06:16:00.636Z,16.37
2019-01-25T06:20:10.745Z,18.43
2019-01-25T06:24:18.764Z,17.93
2019-01-25T06:28:26.560Z,19.67
2019-01-25T06:32:34.836Z,18.37
2019-01-25T06:36:42.676Z,20.17
2019-01-25T06:40:50.279Z,16.03
2019-01-25T06:44:58.188Z,14.33
2019-01-25T06:49:06.424Z,14.67
2019-01-25T06:53:14.334Z,12.30
2019-01-25T06:57:32.098Z,14.37
2019-01-25T07:01:52.247Z,12.40
2019-01-25T07:06:00.101Z,20.30
2019-01-25T07:10:12.420Z,15.47
2019-01-25T07:14:20.443Z,15.90
2019-01-25T07:18:28.461Z,14.13
2019-01-25T07:22:36.470Z,15.00
2019-01-25T07:26:44.615Z,16.10
2019-01-25T07:30:52.318Z,16.63
2019-01-25T07:34:59.939Z,15.60
2019-01-25T07:39:23.230Z,17.30
2019-01-25T07:43:31.398Z,13.80
2019-01-25T07:47:39.834Z,12.57
2019-01-25T07:51:49.415Z,12.60
2019-01-25T07:55:57.504Z,14.87
2019-01-25T08:00:05.679Z,23.40
2019-01-25T08:04:13.374Z,24.27
2019-01-25T08:08:21.413Z,17.70
2019-01-25T08:12:29.152Z,15.93
2019-01-25T08:16:36.853Z,17.83
2019-01-25T08:20:44.639Z,19.57
2019-01-25T08:24:52.726Z,19.40
2019-01-25T08:29:00.811Z,23.37
2019-01-25T08:33:08.943Z,21.27
2019-01-25T08:37:17.234Z,18.60
2019-01-25T08:41:25.324Z,19.90
2019-01-25T08:45:33.569Z,15.63
2019-01-25T08:49:41.170Z,42.13
2019-01-25T08:53:49.328Z,23.20
2019-01-25T08:57:57.035Z,20.00
2019-01-25T09:02:05.471Z,16.43
2019-01-25T09:06:13.378Z,14.07
2019-01-25T09:10:21.752Z,20.70
2019-01-25T09:14:29.796Z,20.90
2019-01-25T09:18:37.816Z,21.27
2019-01-25T09:22:45.604Z,15.90
2019-01-25T09:26:53.415Z,17.87
2019-01-25T09:31:01.055Z,17.87
2019-01-25T09:35:09.240Z,18.23
2019-01-25T09:39:17.025Z,17.20
2019-01-25T09:43:25.050Z,16.47
2019-01-25T09:47:33.115Z,16.80
2019-01-25T09:51:40.675Z,17.83
2019-01-25T09:55:48.344Z,16.93
2019-01-25T09:59:56.429Z,18.50
2019-01-25T10:04:04.556Z,18.80
2019-01-25T10:08:12.589Z,21.93
2019-01-25T10:12:20.543Z,24.13
2019-01-25T10:16:28.263Z,21.53
2019-01-25T10:20:35.906Z,21.77
2019-01-25T10:24:43.486Z,17.83
2019-01-25T10:28:51.504Z,19.13
2019-01-25T10:33:00.548Z,19.50
2019-01-25T10:37:08.698Z,15.70
2019-01-25T10:41:16.637Z,17.20
2019-01-25T10:45:30.150Z,16.10
2019-01-25T10:49:37.895Z,16.57
2019-01-25T10:53:46.335Z,16.73
2019-01-25T10:57:55.150Z,21.43
2019-01-25T11:02:03.059Z,17.43
2019-01-25T11:06:10.687Z,26.03
2019-01-25T11:10:18.715Z,22.00
2019-01-25T11:14:26.529Z,21.73
2019-01-25T11:18:34.672Z,28.23
2019-01-25T11:22:43.053Z,27.57
2019-01-25T11:26:51.618Z,23.87
2019-01-25T11:30:59.762Z,21.27
2019-01-25T11:35:07.754Z,19.23
2019-01-25T11:39:16.003Z,23.07
2019-01-25T11:43:24.275Z,23.50
2019-01-25T11:47:32.146Z,19.90
2019-01-25T11:51:39.925Z,18.70
2019-01-25T11:55:47.551Z,19.73
2019-01-25T11:59:55.268Z,19.23
2019-01-25T12:04:03.318Z,16.80
2019-01-25T12:08:11.913Z,18.63
2019-01-25T12:12:19.683Z,24.30
2019-01-25T12:16:27.453Z,19.87
2019-01-25T12:20:35.224Z,28.00
2019-01-25T12:24:43.249Z,26.47
2019-01-25T12:28:50.769Z,22.73
2019-01-25T12:32:58.593Z,19.77
2019-01-25T12:37:06.423Z,19.07
2019-01-25T12:41:14.250Z,18.87
2019-01-25T12:45:24.307Z,50.67
2019-01-25T12:49:33.025Z,18.63
2019-01-25T12:53:41.059Z,18.33
2019-01-25T12:57:49.063Z,22.07
2019-01-25T13:01:56.873Z,18.07
2019-01-25T13:06:05.187Z,20.77
2019-01-25T13:10:14.541Z,20.03
2019-01-25T13:14:23.016Z,21.23
2019-01-25T13:18:31.031Z,20.90
2019-01-25T13:22:38.764Z,25.47
2019-01-25T13:26:46.900Z,18.60
2019-01-25T13:30:54.908Z,20.77
2019-01-25T13:35:02.928Z,20.10
2019-01-25T13:39:11.544Z,30.30
2019-01-25T13:43:20.381Z,28.60
2019-01-25T13:47:30.040Z,26.27
2019-01-25T13:51:37.905Z,23.17
2019-01-25T13:55:45.924Z,25.17
2019-01-25T13:59:54.307Z,27.00
2019-01-25T14:04:02.275Z,27.30
2019-01-25T14:08:10.337Z,25.83
2019-01-25T14:12:18.036Z,26.97
2019-01-25T14:16:25.907Z,26.47
2019-01-25T14:20:33.966Z,26.70
2019-01-25T14:24:42.700Z,24.17
2019-01-25T14:28:50.828Z,27.43
2019-01-25T14:32:58.866Z,30.00
2019-01-25T14:37:06.984Z,23.93
2019-01-25T14:41:15.005Z,25.93
2019-01-25T14:45:22.815Z,22.43
2019-01-25T14:49:30.831Z,29.63
2019-01-25T14:53:38.541Z,25.07
2019-01-25T14:57:46.646Z,40.53
2019-01-25T15:01:54.366Z,31.33
2019-01-25T15:06:02.088Z,34.37
2019-01-25T15:10:13.837Z,32.73
2019-01-25T15:14:21.549Z,29.00
2019-01-25T15:18:29.961Z,26.07
2019-01-25T15:22:37.899Z,24.43
2019-01-25T15:26:45.912Z,22.57
2019-01-25T15:30:54.292Z,25.00
2019-01-25T15:35:02.308Z,21.77
2019-01-25T15:39:12.032Z,22.73
2019-01-25T15:43:20.045Z,25.27
2019-01-25T15:47:28.046Z,24.07
2019-01-25T15:51:35.766Z,46.40
2019-01-25T15:55:43.501Z,28.37
2019-01-25T15:59:51.386Z,34.57
2019-01-25T16:03:59.106Z,26.60
2019-01-25T16:08:07.341Z,30.47
2019-01-25T16:12:15.265Z,31.40
2019-01-25T16:16:23.640Z,27.77
2019-01-25T16:20:31.827Z,25.13
2019-01-25T16:24:39.581Z,27.03
2019-01-25T16:28:47.629Z,30.23
2019-01-25T16:32:55.352Z,24.23
2019-01-25T16:37:03.737Z,26.80
2019-01-25T16:41:11.792Z,30.50
2019-01-25T16:45:28.533Z,31.33
2019-01-25T16:49:36.918Z,29.40
2019-01-25T16:53:45.002Z,28.33
2019-01-25T16:57:53.033Z,25.70
2019-01-25T17:02:01.038Z,31.03
2019-01-25T17:06:08.950Z,28.43
2019-01-25T17:10:17.779Z,24.77
2019-01-25T17:14:33.164Z,27.60
2019-01-25T17:18:35.824Z,28.13
2019-01-25T17:22:43.597Z,23.70
2019-01-25T17:26:51.727Z,27.70
2019-01-25T17:30:59.706Z,32.83
2019-01-25T17:35:09.749Z,27.20
2019-01-25T17:39:18.586Z,31.40
2019-01-25T17:43:26.957Z,29.60
2019-01-25T17:47:35.066Z,30.83
2019-01-25T17:51:43.004Z,31.60
2019-01-25T17:55:52.425Z,33.60
2019-01-25T18:00:00.258Z,26.27
2019-01-25T18:04:08.158Z,28.40
2019-01-25T18:08:15.928Z,30.50
2019-01-25T18:12:23.675Z,26.90
2019-01-25T18:16:32.205Z,28.10
2019-01-25T18:20:40.351Z,27.63
2019-01-25T18:24:48.003Z,23.43
2019-01-25T18:29:06.518Z,29.07
2019-01-25T18:33:14.647Z,23.67
2019-01-25T18:37:22.583Z,24.97
2019-01-25T18:41:32.934Z,20.23
2019-01-25T18:45:41.485Z,16.53
2019-01-25T18:49:49.936Z,22.17
2019-01-25T18:53:58.021Z,21.03
2019-01-25T18:58:07.421Z,23.57
2019-01-25T19:02:18.432Z,29.60
2019-01-25T19:06:27.933Z,19.90
2019-01-25T19:10:36.218Z,20.77
2019-01-25T19:14:44.142Z,21.57
2019-01-25T19:18:51.997Z,33.07
2019-01-25T19:23:00.143Z,23.50
2019-01-25T19:27:08.573Z,25.07
2019-01-25T19:31:16.605Z,25.80
2019-01-25T19:35:24.217Z,19.53
2019-01-25T19:39:32.386Z,16.90
2019-01-25T19:43:40.419Z,14.43
2019-01-25T19:47:48.712Z,14.50
2019-01-25T19:51:56.759Z,38.20
2019-01-25T19:56:05.961Z,16.93
2019-01-25T20:00:20.548Z,14.67
2019-01-25T20:04:28.279Z,12.87
2019-01-25T20:08:36.232Z,12.60
2019-01-25T20:12:44.659Z,13.57
2019-01-25T20:16:52.760Z,12.73
2019-01-25T20:21:00.636Z,12.60
2019-01-25T20:25:09.454Z,12.20
2019-01-25T20:29:17.425Z,15.17
2019-01-25T20:33:25.827Z,17.13
2019-01-25T20:37:33.900Z,14.47
2019-01-25T20:41:41.674Z,12.93
2019-01-25T20:45:49.877Z,13.27
2019-01-25T20:49:57.589Z,13.43
2019-01-25T20:54:07.135Z,13.50
2019-01-25T20:58:15.158Z,13.83
2019-01-25T21:02:23.188Z,13.17
2019-01-25T21:06:31.218Z,11.53
2019-01-25T21:10:39.437Z,9.60
2019-01-25T21:14:47.449Z,11.27
2019-01-25T21:18:55.546Z,9.93
2019-01-25T21:23:03.944Z,9.67
2019-01-25T21:27:12.101Z,8.80
2019-01-25T21:31:20.504Z,10.17
2019-01-25T21:35:28.619Z,8.60
2019-01-25T21:39:37.434Z,7.57
2019-01-25T21:43:45.810Z,8.30
2019-01-25T21:47:53.990Z,7.70
2019-01-25T21:52:02.171Z,7.77
2019-01-25T21:56:10.299Z,8.97
2019-01-25T22:00:29.878Z,9.80
2019-01-25T22:04:37.784Z,10.73
2019-01-25T22:08:45.798Z,12.30
2019-01-25T22:12:53.813Z,12.87
2019-01-25T22:17:01.873Z,9.97
2019-01-25T22:21:09.921Z,11.77
2019-01-25T22:25:18.097Z,11.57
2019-01-25T22:29:26.103Z,12.17
2019-01-25T22:33:34.529Z,12.43
2019-01-25T22:37:42.538Z,11.40
2019-01-25T22:41:50.670Z,12.50
2019-01-25T22:45:58.891Z,13.37
2019-01-25T22:50:08.983Z,15.03
2019-01-25T22:54:16.701Z,12.60
2019-01-25T22:58:24.736Z,13.63
2019-01-25T23:02:32.746Z,14.37
2019-01-25T23:06:46.987Z,13.43
2019-01-25T23:10:55.378Z,16.77
2019-01-25T23:15:03.010Z,14.97
2019-01-25T23:19:12.054Z,15.40
2019-01-25T23:23:19.975Z,15.87
2019-01-25T23:27:27.997Z,15.40
2019-01-25T23:31:35.719Z,15.30
2019-01-25T23:35:43.834Z,15.23
2019-01-25T23:39:51.750Z,15.43
2019-01-25T23:43:59.748Z,14.67
2019-01-25T23:48:07.509Z,15.77
2019-01-25T23:52:15.587Z,15.20
2019-01-25T23:56:23.284Z,14.93
